Aviation Digital Data Service (ADDS)

Output produced by METARs form (1306 UTC 19 January 2019)
found at http://www.aviationweather.gov/metar/data/
 
Forecast for: KPHX (PHOENIX/SKY HRBR, AZ, US)
Text: KPHX 191120Z 1912/2018 07004KT P6SM FEW250
Forecast period: 1200 to 2300 UTC 19 January 2019
Forecast type: FROM: standard forecast or significant change
Winds: from the ENE (70 degrees) at 5 MPH (4 knots; 2.1 m/s)
Visibility: 6 or more miles 10+ km)
Ceiling: at least 12,000 feet AGL
Clouds: few clouds at 25000 feet AGL
Weather: no significant weather forecast for this period
Text: FM192300 29005KT P6SM SCT250
Forecast period: 2300 UTC 19 January 2019 to 0500 UTC 20 January 2019
Forecast type: FROM: standard forecast or significant change
Winds: from the WNW (290 degrees) at 6 MPH (5 knots; 2.6 m/s)
Visibility: 6 or more miles 10+ km)
Ceiling: at least 12,000 feet AGL
Clouds: scattered clouds at 25000 feet AGL
Weather: no significant weather forecast for this period
Text: FM200500 08004KT P6SM BKN250
Forecast period: 0500 to 1800 UTC 20 January 2019
Forecast type: FROM: standard forecast or significant change
Winds: from the E (80 degrees) at 5 MPH (4 knots; 2.1 m/s)
Visibility: 6 or more miles 10+ km)
Ceiling: 25000 feet AGL
Clouds: broken clouds at 25000 feet AGL
Weather: no significant weather forecast for this period